Kuusiku, Estonia

5:42 PM EEST on October 25, 2014 (GMT +0300)
Saula | Change Station
CLOSE
Current Station
Personal Weather Station
Location: Harjumaa, HARJUMAA
Elevation: 180 ft
Nearby Weather Stations

Elev 180 ft 59.22 °N, 25.00 °E | Updated 2 minutes ago

Clear
Clear
35.0 °F
Feels Like 35 °F
N
1.6
Wind Variable Wind from South
Gusts 4.5 mph

Today
High -- | Low -- °F
--% Chance of Precip.
Yesterday
High -- | Low -- °F
Precip. -- in
8:21 AM 5:47 PM
Waxing Crescent, 3% visible
Pressure 30.21 in
Visibility -9999.0 miles
Clouds
Windchill 35 °F
Dew Point 26 °F
Humidity 68%
Rainfall 0.00 in
Snow Depth Not available.
UV Not available.
Pollen Not available.
Air Quality Not available.
Flu Activity Not available.
METAR EETN 251420Z 18012KT CAVOK 02/M02 Q1023 NOSIG

More Conditions Fewer Conditions

Pressure 30.21 in
Visibility -9999.0 miles
Clouds
Windchill 35 °F
Dew Point 26 °F
Humidity 68%
Rainfall 0.00 in
Snow Depth Not available.
UV Not available.
Pollen Not available.
Air Quality Not available.
Flu Activity Not available.
METAR EETN 251420Z 18012KT CAVOK 02/M02 Q1023 NOSIG

More Conditions Fewer Conditions

10-Day Weather Forecast

Almanac

Astronomy

Oct. 25, 2014 Rise Set
Actual Time 8:21 AM EEST 5:47 PM EEST
Civil Twilight 7:39 AM EEST 6:30 PM EEST
Nautical Twilight 6:51 AM EEST 7:17 PM EEST
Astronomical Twilight 6:05 AM EEST 8:03 PM EEST
Moon 9:57 AM EEST 6:37 PM EEST
Length of Visible Light 10h 50m
Length of Day
9h 26m
Tomorrow will be 5m 3s shorter.
Waxing Crescent, 3% of the Moon is Illuminated
Today
Waxing Crescent
Oct 30
First Quarter
Nov 6
Full
Nov 14
Last Quarter
Nov 22
New

Today's Extremes

Country Highs Country Lows

Community

WunderPhotos

Upload Photos

1,764,861 photos uploaded!

Nearby

Snow Depth

Not available.

Earthquake Activity

City Distance Mag. Time & Date
No recent earthquake activity has been reported nearby.
Minimum magnitude displayed is 2.5.

Coastal Water Temperatures

Place Temperature
No Stations Reporting

Nearby Weather Stations